createdAt,value
2022-12-04T00:01:18.118Z,4.51
2022-12-04T00:03:46.098Z,4.00
2022-12-04T00:06:16.845Z,4.50
2022-12-04T00:08:46.106Z,3.84
2022-12-04T00:11:16.315Z,3.98
2022-12-04T00:13:46.027Z,3.90
2022-12-04T00:16:16.910Z,3.94
2022-12-04T00:18:45.246Z,3.97
2022-12-04T00:21:15.325Z,3.38
2022-12-04T00:23:43.210Z,3.68
2022-12-04T00:26:13.125Z,3.84
2022-12-04T00:28:41.416Z,4.14
2022-12-04T00:31:13.818Z,4.29
2022-12-04T00:33:42.938Z,3.79
2022-12-04T00:36:13.271Z,3.82
2022-12-04T00:38:42.654Z,4.01
2022-12-04T00:41:11.536Z,4.04
2022-12-04T00:43:39.738Z,3.70
2022-12-04T00:46:08.107Z,3.93
2022-12-04T00:48:37.379Z,4.02
2022-12-04T00:51:06.620Z,3.49
2022-12-04T00:53:34.369Z,3.63
2022-12-04T00:56:05.163Z,3.66
2022-12-04T00:58:32.956Z,3.64
2022-12-04T01:01:04.648Z,3.67
2022-12-04T01:03:32.872Z,3.63
2022-12-04T01:06:02.875Z,3.87
2022-12-04T01:08:30.822Z,3.92
2022-12-04T01:10:58.872Z,3.47
2022-12-04T01:13:27.287Z,3.47
2022-12-04T01:15:55.024Z,3.22
2022-12-04T01:18:22.767Z,3.97
2022-12-04T01:20:51.760Z,3.81
2022-12-04T01:23:21.127Z,3.63
2022-12-04T01:25:53.302Z,3.81
2022-12-04T01:28:21.404Z,3.51
2022-12-04T01:30:59.435Z,3.90
2022-12-04T01:33:27.236Z,3.57
2022-12-04T01:35:55.462Z,3.58
2022-12-04T01:38:25.136Z,3.88
2022-12-04T01:40:53.819Z,4.00
2022-12-04T01:43:22.446Z,3.60
2022-12-04T01:45:51.557Z,3.88
2022-12-04T01:48:26.942Z,4.00
2022-12-04T01:51:02.282Z,3.49
2022-12-04T01:53:32.737Z,3.44
2022-12-04T01:56:00.636Z,3.55
2022-12-04T01:58:33.815Z,3.46
2022-12-04T02:01:08.744Z,3.75
2022-12-04T02:03:37.665Z,4.10
2022-12-04T02:06:05.620Z,3.50
2022-12-04T02:08:36.846Z,3.54
2022-12-04T02:11:14.812Z,3.47
2022-12-04T02:13:53.154Z,4.00
2022-12-04T02:16:26.242Z,3.72
2022-12-04T02:19:04.065Z,3.83
2022-12-04T02:21:37.321Z,3.99
2022-12-04T02:24:28.947Z,3.88
2022-12-04T02:27:02.344Z,3.92
2022-12-04T02:29:38.277Z,3.76
2022-12-04T02:32:13.235Z,4.29
2022-12-04T02:34:45.715Z,4.35
2022-12-04T02:37:19.279Z,4.11
2022-12-04T02:39:53.296Z,3.71
2022-12-04T02:42:29.045Z,4.08
2022-12-04T02:45:02.682Z,4.15
2022-12-04T02:47:32.190Z,4.33
2022-12-04T02:50:03.139Z,3.61
2022-12-04T02:52:35.415Z,3.57
2022-12-04T02:55:09.279Z,3.77
2022-12-04T02:57:42.687Z,3.92
2022-12-04T03:00:13.111Z,3.61
2022-12-04T03:02:48.032Z,3.90
2022-12-04T03:05:19.293Z,3.81
2022-12-04T03:07:50.368Z,3.61
2022-12-04T03:10:22.042Z,3.75
2022-12-04T03:12:54.061Z,4.05
2022-12-04T03:15:27.734Z,4.53
2022-12-04T03:18:02.162Z,3.91
2022-12-04T03:20:31.963Z,3.99
2022-12-04T03:23:07.260Z,4.29
2022-12-04T03:25:39.163Z,4.29
2022-12-04T03:28:15.579Z,4.78
2022-12-04T03:30:50.972Z,4.72
2022-12-04T03:33:22.463Z,4.27
2022-12-04T03:35:53.750Z,4.33
2022-12-04T03:38:28.925Z,4.05
2022-12-04T03:41:03.594Z,4.31
2022-12-04T03:43:38.873Z,4.03
2022-12-04T03:46:13.649Z,3.22
2022-12-04T03:48:46.441Z,3.70
2022-12-04T03:51:20.273Z,3.70
2022-12-04T03:53:53.751Z,3.98
2022-12-04T03:56:23.915Z,3.72
2022-12-04T03:58:56.475Z,4.00
2022-12-04T04:01:31.249Z,3.75
2022-12-04T04:04:01.063Z,3.89
2022-12-04T04:06:33.520Z,4.30
2022-12-04T04:09:06.063Z,4.16
2022-12-04T04:11:38.699Z,4.04
2022-12-04T04:14:27.046Z,3.95
2022-12-04T04:17:18.709Z,3.74
2022-12-04T04:20:08.066Z,4.19
2022-12-04T04:22:56.173Z,3.78
2022-12-04T04:25:26.882Z,4.00
2022-12-04T04:27:55.480Z,3.84
2022-12-04T04:30:23.778Z,4.30
2022-12-04T04:32:59.831Z,4.41
2022-12-04T04:35:36.290Z,4.60
2022-12-04T04:38:11.749Z,4.13
2022-12-04T04:40:45.349Z,4.25
2022-12-04T04:43:20.391Z,4.29
2022-12-04T04:45:52.302Z,4.49
2022-12-04T04:48:27.022Z,4.51
2022-12-04T04:50:55.490Z,4.96
2022-12-04T04:53:29.686Z,5.19
2022-12-04T04:55:58.226Z,4.53
2022-12-04T04:58:25.995Z,4.53
2022-12-04T05:00:58.966Z,4.20
2022-12-04T05:03:29.588Z,3.73
2022-12-04T05:05:57.404Z,3.88
2022-12-04T05:08:25.149Z,4.10
2022-12-04T05:10:53.059Z,4.16
2022-12-04T05:13:21.663Z,4.14
2022-12-04T05:15:57.543Z,3.82
2022-12-04T05:18:25.522Z,4.13
2022-12-04T05:20:53.679Z,4.24
2022-12-04T05:23:21.814Z,4.02
2022-12-04T05:25:49.547Z,4.52
2022-12-04T05:28:18.091Z,4.76
2022-12-04T05:30:46.051Z,4.65
2022-12-04T05:33:13.842Z,4.45
2022-12-04T05:35:41.541Z,4.41
2022-12-04T05:38:10.629Z,4.14
2022-12-04T05:40:38.405Z,4.36
2022-12-04T05:43:06.110Z,3.91
2022-12-04T05:45:33.825Z,4.22
2022-12-04T05:48:02.103Z,4.23
2022-12-04T05:50:29.798Z,4.71
2022-12-04T05:52:57.456Z,3.99
2022-12-04T05:55:26.536Z,4.40
2022-12-04T05:57:54.259Z,4.23
2022-12-04T06:00:22.018Z,4.24
2022-12-04T06:02:49.954Z,4.55
2022-12-04T06:05:17.919Z,4.37
2022-12-04T06:07:45.691Z,4.80
2022-12-04T06:10:13.460Z,4.74
2022-12-04T06:12:42.613Z,4.62
2022-12-04T06:15:11.151Z,4.32
2022-12-04T06:17:38.902Z,4.29
2022-12-04T06:20:11.445Z,4.18
2022-12-04T06:22:39.672Z,4.41
2022-12-04T06:25:08.638Z,4.24
2022-12-04T06:27:36.584Z,4.46
2022-12-04T06:30:06.896Z,3.90
2022-12-04T06:32:34.714Z,4.34
2022-12-04T06:35:02.951Z,4.44
2022-12-04T06:37:30.794Z,4.32
2022-12-04T06:39:58.686Z,4.50
2022-12-04T06:42:26.787Z,4.87
2022-12-04T06:44:54.442Z,4.83
2022-12-04T06:47:23.513Z,4.82
2022-12-04T06:49:51.874Z,4.76
2022-12-04T06:52:19.729Z,5.15
2022-12-04T06:54:47.454Z,4.77
2022-12-04T06:57:15.275Z,4.96
2022-12-04T06:59:42.963Z,5.05
2022-12-04T07:02:11.586Z,5.18
2022-12-04T07:04:40.771Z,5.12
2022-12-04T07:07:09.797Z,5.09
2022-12-04T07:09:37.790Z,4.90
2022-12-04T07:12:06.163Z,4.70
2022-12-04T07:14:33.862Z,4.63
2022-12-04T07:17:01.610Z,4.49
2022-12-04T07:19:30.459Z,4.64
2022-12-04T07:21:59.537Z,4.21
2022-12-04T07:24:27.266Z,4.26
2022-12-04T07:26:55.412Z,4.43
2022-12-04T07:29:23.218Z,4.08
2022-12-04T07:31:51.009Z,4.91
2022-12-04T07:34:18.843Z,5.06
2022-12-04T07:36:46.602Z,5.15
2022-12-04T07:39:15.681Z,5.09
2022-12-04T07:41:43.379Z,5.02
2022-12-04T07:44:11.125Z,4.97
2022-12-04T07:46:38.919Z,4.70
2022-12-04T07:49:06.680Z,5.09
2022-12-04T07:51:34.335Z,4.84
2022-12-04T07:54:04.036Z,4.79
2022-12-04T07:56:34.595Z,4.51
2022-12-04T07:59:02.980Z,4.29
2022-12-04T08:01:30.980Z,4.54
2022-12-04T08:04:00.474Z,4.85
2022-12-04T08:06:30.906Z,4.66
2022-12-04T08:08:58.692Z,5.15
2022-12-04T08:11:28.995Z,5.15
2022-12-04T08:13:59.976Z,5.01
2022-12-04T08:16:29.362Z,5.02
2022-12-04T08:18:58.217Z,4.70
2022-12-04T08:21:27.734Z,4.57
2022-12-04T08:23:57.131Z,4.17
2022-12-04T08:26:26.763Z,4.69
2022-12-04T08:28:55.573Z,4.64
2022-12-04T08:31:27.037Z,4.69
2022-12-04T08:33:56.878Z,4.29
2022-12-04T08:36:25.595Z,4.66
2022-12-04T08:38:53.913Z,4.78
2022-12-04T08:41:24.313Z,4.44
2022-12-04T08:43:54.668Z,4.15
2022-12-04T08:46:25.713Z,4.61
2022-12-04T08:48:53.702Z,4.15
2022-12-04T08:51:23.138Z,4.25
2022-12-04T08:53:55.347Z,4.50
2022-12-04T08:56:23.346Z,4.78
2022-12-04T08:58:51.312Z,4.94
2022-12-04T09:01:19.187Z,4.75
2022-12-04T09:03:48.363Z,4.98
2022-12-04T09:06:16.988Z,4.62
2022-12-04T09:08:45.617Z,4.63
2022-12-04T09:11:15.784Z,4.84
2022-12-04T09:13:45.026Z,4.65
2022-12-04T09:16:15.294Z,4.69
2022-12-04T09:18:43.630Z,5.07
2022-12-04T09:21:15.076Z,5.44
2022-12-04T09:23:43.322Z,5.16
2022-12-04T09:26:19.952Z,4.73
2022-12-04T09:28:47.908Z,4.68
2022-12-04T09:31:15.956Z,4.80
2022-12-04T09:33:43.921Z,4.69
2022-12-04T09:36:16.100Z,4.68
2022-12-04T09:38:44.528Z,5.01
2022-12-04T09:41:35.333Z,5.41
2022-12-04T09:44:07.998Z,5.62
2022-12-04T09:46:39.583Z,5.11
2022-12-04T09:49:13.233Z,5.01
2022-12-04T09:51:43.453Z,5.41
2022-12-04T09:54:17.490Z,5.55
2022-12-04T09:56:51.978Z,5.34
2022-12-04T09:59:24.020Z,4.94
2022-12-04T10:01:57.220Z,5.45
2022-12-04T10:04:25.997Z,5.20
2022-12-04T10:07:02.723Z,5.21
2022-12-04T10:09:40.964Z,4.81
2022-12-04T10:12:20.420Z,4.40
2022-12-04T10:15:11.265Z,4.64
2022-12-04T10:17:59.724Z,5.06
2022-12-04T10:20:44.679Z,5.41
2022-12-04T10:23:25.297Z,4.98
2022-12-04T10:25:55.920Z,5.29
2022-12-04T10:28:27.860Z,5.53
2022-12-04T10:30:59.577Z,5.32
2022-12-04T10:33:34.976Z,5.60
2022-12-04T10:36:03.236Z,4.88
2022-12-04T10:38:39.657Z,5.32
2022-12-04T10:41:15.057Z,5.43
2022-12-04T10:43:45.719Z,4.89
2022-12-04T10:46:16.324Z,4.86
2022-12-04T10:48:48.652Z,5.28
2022-12-04T10:51:18.041Z,5.80
2022-12-04T10:53:49.279Z,5.91
2022-12-04T10:56:19.488Z,5.81
2022-12-04T10:58:57.397Z,5.63
2022-12-04T11:01:25.662Z,5.42
2022-12-04T11:04:00.097Z,5.41
2022-12-04T11:06:28.178Z,5.23
2022-12-04T11:08:57.837Z,5.33
2022-12-04T11:11:28.178Z,5.59
2022-12-04T11:14:04.525Z,5.24
2022-12-04T11:16:36.933Z,5.73
2022-12-04T11:19:05.062Z,5.90
2022-12-04T11:21:33.428Z,6.13
2022-12-04T11:24:02.775Z,6.20
2022-12-04T11:26:33.704Z,6.21
2022-12-04T11:29:02.428Z,6.47
2022-12-04T11:31:32.162Z,6.12
2022-12-04T11:34:02.737Z,6.40
2022-12-04T11:36:32.552Z,6.54
2022-12-04T11:39:17.314Z,6.19
2022-12-04T11:41:45.258Z,6.29
2022-12-04T11:44:25.303Z,6.43
2022-12-04T11:46:54.602Z,6.59
2022-12-04T11:49:24.626Z,5.75
2022-12-04T11:51:59.903Z,5.75
2022-12-04T11:54:35.427Z,6.08
2022-12-04T11:57:10.885Z,5.31
2022-12-04T11:59:56.919Z,5.34
2022-12-04T12:02:50.566Z,5.90
2022-12-04T12:05:49.768Z,6.24
2022-12-04T12:08:25.333Z,6.06
2022-12-04T12:11:04.268Z,5.28
2022-12-04T12:13:38.576Z,5.81
2022-12-04T12:16:17.916Z,5.16
2022-12-04T12:19:04.781Z,5.32
2022-12-04T12:21:39.023Z,5.94
2022-12-04T12:24:20.471Z,6.11
2022-12-04T12:27:03.359Z,6.54
2022-12-04T12:29:44.396Z,6.35
2022-12-04T12:32:27.169Z,6.37
2022-12-04T12:34:55.815Z,6.00
2022-12-04T12:37:29.598Z,6.08
2022-12-04T12:40:03.950Z,6.09
2022-12-04T12:42:35.417Z,5.76
2022-12-04T12:45:07.958Z,6.11
2022-12-04T12:47:41.417Z,5.65
2022-12-04T12:50:17.342Z,6.27
2022-12-04T12:52:53.699Z,5.97
2022-12-04T12:55:24.168Z,5.48
2022-12-04T12:58:01.377Z,5.32
2022-12-04T13:00:33.180Z,5.37
2022-12-04T13:03:04.924Z,5.66
2022-12-04T13:05:38.736Z,5.66
2022-12-04T13:08:17.039Z,5.51
2022-12-04T13:10:49.695Z,5.31
2022-12-04T13:13:25.954Z,5.01
2022-12-04T13:15:58.520Z,4.88
2022-12-04T13:18:29.541Z,5.57
2022-12-04T13:21:00.995Z,5.46
2022-12-04T13:23:47.052Z,4.69
2022-12-04T13:26:28.691Z,5.36
2022-12-04T13:29:06.095Z,5.56
2022-12-04T13:31:49.219Z,6.03
2022-12-04T13:34:35.717Z,4.74
2022-12-04T13:37:25.225Z,4.31
2022-12-04T13:40:35.727Z,4.75
2022-12-04T13:43:28.623Z,3.73
2022-12-04T13:46:01.635Z,3.63
2022-12-04T13:48:33.138Z,3.90
2022-12-04T13:51:07.418Z,4.68
2022-12-04T13:53:39.793Z,4.38
2022-12-04T13:56:13.461Z,4.70
2022-12-04T13:58:43.372Z,5.63
2022-12-04T14:01:25.959Z,6.03
2022-12-04T14:03:57.451Z,4.08
2022-12-04T14:06:29.967Z,4.48
2022-12-04T14:09:00.885Z,3.62
2022-12-04T14:11:31.435Z,3.42
2022-12-04T14:14:06.486Z,3.51
2022-12-04T14:16:41.482Z,4.67
2022-12-04T14:19:10.003Z,4.97
2022-12-04T14:21:41.425Z,4.80
2022-12-04T14:24:17.918Z,4.20
2022-12-04T14:27:10.540Z,5.00
2022-12-04T14:29:48.569Z,5.06
2022-12-04T14:32:24.556Z,5.08
2022-12-04T14:34:53.484Z,4.92
2022-12-04T14:37:29.195Z,4.05
2022-12-04T14:39:58.780Z,4.38
2022-12-04T14:42:29.884Z,4.82
2022-12-04T14:44:59.815Z,4.79
2022-12-04T14:47:41.327Z,4.35
2022-12-04T14:50:29.912Z,4.39
2022-12-04T14:53:10.073Z,4.74
2022-12-04T14:55:47.805Z,4.30
2022-12-04T14:58:34.550Z,3.71
2022-12-04T15:01:04.861Z,3.75
2022-12-04T15:03:37.907Z,3.76
2022-12-04T15:06:08.945Z,4.49
2022-12-04T15:08:36.949Z,4.58
2022-12-04T15:11:36.704Z,5.38
2022-12-04T15:14:13.896Z,3.79
2022-12-04T15:16:42.048Z,4.53
2022-12-04T15:19:18.344Z,3.25
2022-12-04T15:21:46.486Z,4.19
2022-12-04T15:24:23.448Z,4.77
2022-12-04T15:26:53.639Z,4.97
2022-12-04T15:29:26.550Z,4.88
2022-12-04T15:31:58.156Z,5.08
2022-12-04T15:34:37.184Z,4.82
2022-12-04T15:37:07.811Z,4.35
2022-12-04T15:39:38.300Z,3.14
2022-12-04T15:42:07.947Z,2.84
2022-12-04T15:44:36.631Z,2.91
2022-12-04T15:47:17.943Z,2.68
2022-12-04T15:49:47.075Z,2.60
2022-12-04T15:52:17.656Z,3.07
2022-12-04T15:54:51.320Z,2.99
2022-12-04T15:57:28.285Z,3.25
2022-12-04T16:00:01.049Z,3.61
2022-12-04T16:02:31.397Z,3.62
2022-12-04T16:05:12.231Z,3.06
2022-12-04T16:07:50.394Z,3.38
2022-12-04T16:10:22.616Z,3.38
2022-12-04T16:12:53.983Z,3.38
2022-12-04T16:15:22.013Z,3.80
2022-12-04T16:17:49.902Z,3.41
2022-12-04T16:20:22.932Z,3.59
2022-12-04T16:22:54.398Z,4.10
2022-12-04T16:25:22.172Z,4.55
2022-12-04T16:27:49.984Z,4.18
2022-12-04T16:30:18.156Z,3.97
2022-12-04T16:32:46.047Z,3.73
2022-12-04T16:35:17.185Z,3.89
2022-12-04T16:37:46.358Z,4.20
2022-12-04T16:40:15.307Z,4.63
2022-12-04T16:42:48.915Z,4.62
2022-12-04T16:45:23.923Z,4.81
2022-12-04T16:47:54.215Z,4.29
2022-12-04T16:50:22.149Z,3.66
2022-12-04T16:52:51.289Z,4.01
2022-12-04T16:55:21.566Z,4.50
2022-12-04T16:57:49.351Z,4.59
2022-12-04T17:00:19.214Z,4.62
2022-12-04T17:02:47.341Z,4.39
2022-12-04T17:05:20.367Z,5.07
2022-12-04T17:07:48.284Z,5.12
2022-12-04T17:10:23.543Z,5.09
2022-12-04T17:12:53.692Z,3.81
2022-12-04T17:15:21.452Z,3.16
2022-12-04T17:17:49.218Z,2.96
2022-12-04T17:20:19.399Z,3.26
2022-12-04T17:22:47.209Z,3.31
2022-12-04T17:25:15.291Z,3.24
2022-12-04T17:27:44.894Z,3.09
2022-12-04T17:30:13.932Z,2.94
2022-12-04T17:32:41.694Z,3.45
2022-12-04T17:35:12.384Z,3.39
2022-12-04T17:37:40.180Z,4.05
2022-12-04T17:40:10.658Z,3.99
2022-12-04T17:42:38.376Z,3.17
2022-12-04T17:45:09.117Z,3.01
2022-12-04T17:47:37.690Z,2.61
2022-12-04T17:50:05.828Z,2.72
2022-12-04T17:52:33.889Z,2.76
2022-12-04T17:55:01.687Z,2.76
2022-12-04T17:57:29.734Z,2.60
2022-12-04T17:59:57.469Z,3.01
2022-12-04T18:02:26.733Z,2.96
2022-12-04T18:04:55.320Z,2.66
2022-12-04T18:07:23.452Z,2.58
2022-12-04T18:09:51.170Z,2.64
2022-12-04T18:12:18.978Z,2.64
2022-12-04T18:14:46.683Z,2.52
2022-12-04T18:17:17.485Z,2.54
2022-12-04T18:19:46.622Z,2.63
2022-12-04T18:22:14.898Z,2.66
2022-12-04T18:24:42.682Z,2.40
2022-12-04T18:27:10.868Z,2.36
2022-12-04T18:29:39.881Z,2.70
2022-12-04T18:32:07.868Z,2.81
2022-12-04T18:34:35.735Z,2.56
2022-12-04T18:37:04.929Z,2.55
2022-12-04T18:39:33.170Z,2.33
2022-12-04T18:42:00.988Z,2.18
2022-12-04T18:44:28.891Z,2.38
2022-12-04T18:46:59.551Z,2.30
2022-12-04T18:49:29.259Z,2.19
2022-12-04T18:52:00.279Z,2.25
2022-12-04T18:54:29.787Z,2.27
2022-12-04T18:56:57.589Z,2.29
2022-12-04T18:59:28.857Z,2.33
2022-12-04T19:01:56.992Z,2.28
2022-12-04T19:04:26.726Z,2.36
2022-12-04T19:06:56.870Z,2.28
2022-12-04T19:09:54.430Z,2.27
2022-12-04T19:12:17.577Z,2.24
2022-12-04T19:14:45.371Z,2.37
2022-12-04T19:17:13.191Z,2.48
2022-12-04T19:19:41.035Z,2.42
2022-12-04T19:22:08.861Z,2.42
2022-12-04T19:24:36.620Z,2.32
2022-12-04T19:27:11.093Z,2.55
2022-12-04T19:29:40.829Z,2.48
2022-12-04T19:32:09.676Z,2.65
2022-12-04T19:34:38.034Z,2.48
2022-12-04T19:37:06.778Z,2.45
2022-12-04T19:39:34.641Z,2.29
2022-12-04T19:42:02.493Z,2.38
2022-12-04T19:47:20.052Z,2.55
2022-12-04T19:49:47.889Z,2.43
2022-12-04T19:52:15.987Z,2.39
2022-12-04T19:54:43.874Z,2.35
2022-12-04T19:57:11.614Z,2.57
2022-12-04T19:59:44.550Z,2.80
2022-12-04T20:02:13.713Z,2.61
2022-12-04T20:04:43.245Z,2.70
2022-12-04T20:07:11.073Z,2.86
2022-12-04T20:09:38.925Z,2.65
2022-12-04T20:12:07.094Z,2.45
2022-12-04T20:14:34.981Z,2.45
2022-12-04T20:17:03.950Z,2.39
2022-12-04T20:19:31.888Z,2.77
2022-12-04T20:22:01.372Z,2.87
2022-12-04T20:24:31.540Z,2.48
2022-12-04T20:26:59.280Z,2.31
2022-12-04T20:29:27.121Z,2.44
2022-12-04T20:31:54.931Z,2.47
2022-12-04T20:34:22.677Z,2.52
2022-12-04T20:36:50.671Z,2.74
2022-12-04T20:39:24.092Z,2.75
2022-12-04T20:41:51.951Z,2.77
2022-12-04T20:44:20.743Z,2.61
2022-12-04T20:46:48.798Z,2.65
2022-12-04T20:49:22.006Z,3.34
2022-12-04T20:51:52.028Z,2.83
2022-12-04T20:54:23.060Z,2.76
2022-12-04T20:56:54.745Z,2.85
2022-12-04T20:59:24.777Z,2.79
2022-12-04T21:01:53.447Z,2.97
2022-12-04T21:04:22.456Z,3.06
2022-12-04T21:06:50.410Z,3.15
2022-12-04T21:09:23.071Z,2.96
2022-12-04T21:11:52.943Z,2.94
2022-12-04T21:14:40.231Z,2.91
2022-12-04T21:17:10.558Z,3.18
2022-12-04T21:19:38.866Z,3.18
2022-12-04T21:22:06.954Z,2.87
2022-12-04T21:24:38.903Z,2.99
2022-12-04T21:27:09.078Z,2.89
2022-12-04T21:29:37.758Z,3.03
2022-12-04T21:32:07.077Z,2.83
2022-12-04T21:34:35.109Z,2.93
2022-12-04T21:37:02.939Z,3.30
2022-12-04T21:39:30.788Z,3.32
2022-12-04T21:42:17.487Z,3.19
2022-12-04T21:44:45.227Z,3.05
2022-12-04T21:47:13.206Z,2.97
2022-12-04T21:49:41.009Z,3.06
2022-12-04T21:52:08.907Z,2.72
2022-12-04T21:54:36.831Z,3.24
2022-12-04T21:57:09.287Z,3.11
2022-12-04T21:59:37.085Z,3.05
2022-12-04T22:02:04.962Z,3.23
2022-12-04T22:04:32.922Z,3.41
2022-12-04T22:07:00.788Z,3.25
2022-12-04T22:09:28.679Z,3.12
2022-12-04T22:11:56.471Z,3.01
2022-12-04T22:14:25.515Z,3.59
2022-12-04T22:16:54.170Z,3.26
2022-12-04T22:19:22.210Z,2.96
2022-12-04T22:21:50.060Z,3.10
2022-12-04T22:24:18.082Z,3.64
2022-12-04T22:26:45.981Z,4.33
2022-12-04T22:29:41.921Z,3.37
2022-12-04T22:32:02.958Z,2.96
2022-12-04T22:34:30.772Z,2.91
2022-12-04T22:36:58.510Z,2.96
2022-12-04T22:39:26.515Z,2.96
2022-12-04T22:41:54.264Z,3.12
2022-12-04T22:44:22.102Z,3.33
2022-12-04T22:46:49.928Z,3.79
2022-12-04T22:49:19.229Z,3.53
2022-12-04T22:51:46.985Z,3.25
2022-12-04T22:54:15.670Z,3.14
2022-12-04T22:56:44.097Z,3.14
2022-12-04T22:59:11.935Z,3.48
2022-12-04T23:01:39.700Z,4.09
2022-12-04T23:04:07.582Z,4.00
2022-12-04T23:06:36.988Z,4.57
2022-12-04T23:09:09.096Z,4.82
2022-12-04T23:11:37.804Z,4.76
2022-12-04T23:14:07.269Z,5.22
2022-12-04T23:16:37.532Z,5.25
2022-12-04T23:19:06.414Z,5.28
2022-12-04T23:21:34.609Z,4.90
2022-12-04T23:24:03.882Z,4.57
2022-12-04T23:26:35.718Z,4.33
2022-12-04T23:29:17.862Z,4.15
2022-12-04T23:31:51.411Z,4.21
2022-12-04T23:34:19.295Z,3.93
2022-12-04T23:36:47.117Z,3.94
2022-12-04T23:39:16.239Z,3.73
2022-12-04T23:41:44.025Z,3.32
2022-12-04T23:44:11.918Z,2.98
2022-12-04T23:46:39.765Z,3.32
2022-12-04T23:49:07.579Z,3.04
2022-12-04T23:51:35.371Z,3.49
2022-12-04T23:54:03.138Z,3.38
2022-12-04T23:56:32.585Z,3.38
2022-12-04T23:59:00.322Z,3.31
